sensor_id;sensor_type;location;lat;lon;timestamp;pressure;altitude;pressure_sealevel;temperature;humidity
13367;BME280;6752;52.612;13.630;2024-02-26T00:04:45;99817.09;;;4.57;100.00
13367;BME280;6752;52.612;13.630;2024-02-26T00:09:48;99813.33;;;3.69;100.00
13367;BME280;6752;52.612;13.630;2024-02-26T00:14:50;99807.70;;;3.64;100.00
13367;BME280;6752;52.612;13.630;2024-02-26T00:19:52;99798.67;;;3.61;100.00
13367;BME280;6752;52.612;13.630;2024-02-26T00:24:55;99789.39;;;3.70;100.00
13367;BME280;6752;52.612;13.630;2024-02-26T00:29:57;99801.03;;;3.57;100.00
13367;BME280;6752;52.612;13.630;2024-02-26T00:34:59;99782.84;;;3.51;100.00
13367;BME280;6752;52.612;13.630;2024-02-26T00:40:02;99781.85;;;3.42;100.00
13367;BME280;6752;52.612;13.630;2024-02-26T00:45:04;99798.11;;;3.30;100.00
13367;BME280;6752;52.612;13.630;2024-02-26T00:50:07;99782.09;;;3.61;100.00
13367;BME280;6752;52.612;13.630;2024-02-26T00:55:09;99786.75;;;3.60;100.00
13367;BME280;6752;52.612;13.630;2024-02-26T01:00:11;99783.92;;;3.74;100.00
13367;BME280;6752;52.612;13.630;2024-02-26T01:05:14;99776.52;;;3.52;100.00
13367;BME280;6752;52.612;13.630;2024-02-26T01:10:16;99777.49;;;3.41;100.00
13367;BME280;6752;52.612;13.630;2024-02-26T01:15:18;99774.47;;;3.26;100.00
13367;BME280;6752;52.612;13.630;2024-02-26T01:20:21;99771.23;;;3.34;100.00
13367;BME280;6752;52.612;13.630;2024-02-26T01:25:23;99766.72;;;3.41;100.00
13367;BME280;6752;52.612;13.630;2024-02-26T01:30:25;99764.17;;;3.19;100.00
13367;BME280;6752;52.612;13.630;2024-02-26T01:35:28;99764.76;;;3.42;100.00
13367;BME280;6752;52.612;13.630;2024-02-26T01:40:30;99763.40;;;3.28;100.00
13367;BME280;6752;52.612;13.630;2024-02-26T01:45:32;99763.45;;;3.21;100.00
13367;BME280;6752;52.612;13.630;2024-02-26T01:50:35;99764.36;;;3.45;100.00
13367;BME280;6752;52.612;13.630;2024-02-26T01:55:37;99770.77;;;3.30;100.00
13367;BME280;6752;52.612;13.630;2024-02-26T02:00:39;99766.23;;;3.48;100.00
13367;BME280;6752;52.612;13.630;2024-02-26T02:05:42;99765.61;;;3.18;100.00
13367;BME280;6752;52.612;13.630;2024-02-26T02:10:44;99775.84;;;2.69;100.00
13367;BME280;6752;52.612;13.630;2024-02-26T02:15:46;99770.09;;;2.76;100.00
13367;BME280;6752;52.612;13.630;2024-02-26T02:20:49;99775.38;;;2.76;100.00
13367;BME280;6752;52.612;13.630;2024-02-26T02:25:51;99780.75;;;2.62;100.00
13367;BME280;6752;52.612;13.630;2024-02-26T02:30:54;99774.42;;;2.95;100.00
13367;BME280;6752;52.612;13.630;2024-02-26T02:35:56;99776.23;;;2.66;100.00
13367;BME280;6752;52.612;13.630;2024-02-26T02:40:58;99775.94;;;3.04;100.00
13367;BME280;6752;52.612;13.630;2024-02-26T02:46:00;99768.30;;;2.93;100.00
13367;BME280;6752;52.612;13.630;2024-02-26T02:51:03;99776.08;;;2.35;100.00
13367;BME280;6752;52.612;13.630;2024-02-26T02:56:05;99771.59;;;2.49;100.00
13367;BME280;6752;52.612;13.630;2024-02-26T03:01:08;99778.06;;;2.62;100.00
13367;BME280;6752;52.612;13.630;2024-02-26T03:06:10;99787.89;;;2.63;100.00
13367;BME280;6752;52.612;13.630;2024-02-26T03:11:15;99785.27;;;2.51;100.00
13367;BME280;6752;52.612;13.630;2024-02-26T03:16:18;99783.60;;;2.50;100.00
13367;BME280;6752;52.612;13.630;2024-02-26T03:21:20;99784.62;;;2.49;100.00
13367;BME280;6752;52.612;13.630;2024-02-26T03:26:23;99786.16;;;2.37;100.00
13367;BME280;6752;52.612;13.630;2024-02-26T03:31:25;99779.05;;;2.33;100.00
13367;BME280;6752;52.612;13.630;2024-02-26T03:36:27;99776.66;;;2.38;100.00
13367;BME280;6752;52.612;13.630;2024-02-26T03:41:30;99778.93;;;2.48;100.00
13367;BME280;6752;52.612;13.630;2024-02-26T03:46:32;99771.53;;;2.43;100.00
13367;BME280;6752;52.612;13.630;2024-02-26T03:51:34;99790.48;;;2.27;100.00
13367;BME280;6752;52.612;13.630;2024-02-26T03:56:37;99785.55;;;2.38;100.00
13367;BME280;6752;52.612;13.630;2024-02-26T04:01:44;99790.19;;;2.29;100.00
13367;BME280;6752;52.612;13.630;2024-02-26T04:06:48;99793.06;;;2.17;100.00
13367;BME280;6752;52.612;13.630;2024-02-26T04:11:50;99795.75;;;2.17;100.00
13367;BME280;6752;52.612;13.630;2024-02-26T04:16:52;99780.34;;;2.11;100.00
13367;BME280;6752;52.612;13.630;2024-02-26T04:21:55;99789.73;;;2.15;100.00
13367;BME280;6752;52.612;13.630;2024-02-26T04:26:57;99797.38;;;2.15;100.00
13367;BME280;6752;52.612;13.630;2024-02-26T04:32:00;99798.80;;;2.22;100.00
13367;BME280;6752;52.612;13.630;2024-02-26T04:37:02;99811.00;;;2.31;100.00
13367;BME280;6752;52.612;13.630;2024-02-26T04:42:04;99817.58;;;2.44;100.00
13367;BME280;6752;52.612;13.630;2024-02-26T04:47:07;99823.11;;;2.39;100.00
13367;BME280;6752;52.612;13.630;2024-02-26T04:52:10;99831.39;;;2.33;100.00
13367;BME280;6752;52.612;13.630;2024-02-26T04:57:12;99833.57;;;2.34;100.00
13367;BME280;6752;52.612;13.630;2024-02-26T05:02:14;99838.41;;;2.38;100.00
13367;BME280;6752;52.612;13.630;2024-02-26T05:07:17;99844.15;;;2.43;100.00
13367;BME280;6752;52.612;13.630;2024-02-26T05:12:19;99854.36;;;2.25;100.00
13367;BME280;6752;52.612;13.630;2024-02-26T05:17:25;99847.63;;;2.14;100.00
13367;BME280;6752;52.612;13.630;2024-02-26T05:22:24;99847.42;;;2.01;100.00
13367;BME280;6752;52.612;13.630;2024-02-26T05:27:26;99858.30;;;2.26;100.00
13367;BME280;6752;52.612;13.630;2024-02-26T05:32:29;99854.95;;;2.13;100.00
13367;BME280;6752;52.612;13.630;2024-02-26T05:37:31;99857.66;;;2.09;100.00
13367;BME280;6752;52.612;13.630;2024-02-26T05:42:33;99854.36;;;2.10;100.00
13367;BME280;6752;52.612;13.630;2024-02-26T05:47:36;99867.86;;;2.06;100.00
13367;BME280;6752;52.612;13.630;2024-02-26T05:52:38;99871.77;;;2.19;100.00
13367;BME280;6752;52.612;13.630;2024-02-26T05:57:40;99875.55;;;2.02;100.00
13367;BME280;6752;52.612;13.630;2024-02-26T06:02:43;99880.32;;;2.11;100.00
13367;BME280;6752;52.612;13.630;2024-02-26T06:07:45;99888.38;;;2.33;100.00
13367;BME280;6752;52.612;13.630;2024-02-26T06:12:47;99882.47;;;2.23;100.00
13367;BME280;6752;52.612;13.630;2024-02-26T06:17:50;99881.27;;;2.18;100.00
13367;BME280;6752;52.612;13.630;2024-02-26T06:22:52;99886.59;;;2.37;100.00
13367;BME280;6752;52.612;13.630;2024-02-26T06:27:54;99895.94;;;2.48;100.00
13367;BME280;6752;52.612;13.630;2024-02-26T06:32:57;99903.28;;;2.57;100.00
13367;BME280;6752;52.612;13.630;2024-02-26T06:37:59;99899.20;;;2.87;100.00
13367;BME280;6752;52.612;13.630;2024-02-26T06:43:01;99903.94;;;2.67;100.00
13367;BME280;6752;52.612;13.630;2024-02-26T06:48:04;99903.47;;;2.89;100.00
13367;BME280;6752;52.612;13.630;2024-02-26T06:53:06;99898.16;;;2.85;100.00
13367;BME280;6752;52.612;13.630;2024-02-26T06:58:09;99912.03;;;3.06;100.00
13367;BME280;6752;52.612;13.630;2024-02-26T07:03:11;99914.75;;;3.38;100.00
13367;BME280;6752;52.612;13.630;2024-02-26T07:08:13;99912.59;;;3.90;100.00
13367;BME280;6752;52.612;13.630;2024-02-26T07:13:16;99925.87;;;4.03;100.00
13367;BME280;6752;52.612;13.630;2024-02-26T07:18:18;99930.80;;;4.13;100.00
13367;BME280;6752;52.612;13.630;2024-02-26T07:23:20;99930.58;;;4.90;100.00
13367;BME280;6752;52.612;13.630;2024-02-26T07:28:23;99938.20;;;5.38;100.00
13367;BME280;6752;52.612;13.630;2024-02-26T07:33:25;99938.88;;;6.22;100.00
13367;BME280;6752;52.612;13.630;2024-02-26T07:38:27;99940.98;;;6.04;100.00
13367;BME280;6752;52.612;13.630;2024-02-26T07:43:30;99946.95;;;6.49;100.00
13367;BME280;6752;52.612;13.630;2024-02-26T07:48:32;99927.23;;;7.28;100.00
13367;BME280;6752;52.612;13.630;2024-02-26T07:53:35;99934.86;;;6.87;100.00
13367;BME280;6752;52.612;13.630;2024-02-26T07:58:37;99944.36;;;7.03;100.00
13367;BME280;6752;52.612;13.630;2024-02-26T08:03:39;99937.91;;;7.00;100.00
13367;BME280;6752;52.612;13.630;2024-02-26T08:08:42;99940.17;;;7.45;100.00
13367;BME280;6752;52.612;13.630;2024-02-26T08:13:44;99937.59;;;7.97;100.00
13367;BME280;6752;52.612;13.630;2024-02-26T08:18:47;99930.38;;;8.65;100.00
13367;BME280;6752;52.612;13.630;2024-02-26T08:23:49;99928.38;;;8.85;100.00
13367;BME280;6752;52.612;13.630;2024-02-26T08:28:51;99929.00;;;8.92;100.00
13367;BME280;6752;52.612;13.630;2024-02-26T08:33:54;99939.04;;;8.92;100.00
13367;BME280;6752;52.612;13.630;2024-02-26T08:38:56;99940.34;;;8.80;100.00
13367;BME280;6752;52.612;13.630;2024-02-26T08:43:58;99938.53;;;8.83;100.00
13367;BME280;6752;52.612;13.630;2024-02-26T08:49:01;99932.69;;;9.37;100.00
13367;BME280;6752;52.612;13.630;2024-02-26T08:54:03;99932.94;;;9.83;100.00
13367;BME280;6752;52.612;13.630;2024-02-26T08:59:05;99927.51;;;10.45;100.00
13367;BME280;6752;52.612;13.630;2024-02-26T09:04:08;99922.56;;;10.68;98.52
13367;BME280;6752;52.612;13.630;2024-02-26T09:09:10;99919.55;;;10.93;96.76
13367;BME280;6752;52.612;13.630;2024-02-26T09:14:13;99913.62;;;11.61;93.79
13367;BME280;6752;52.612;13.630;2024-02-26T09:19:15;99911.95;;;12.33;92.49
13367;BME280;6752;52.612;13.630;2024-02-26T09:24:17;99915.67;;;12.46;89.94
13367;BME280;6752;52.612;13.630;2024-02-26T09:29:20;99912.19;;;12.92;85.87
13367;BME280;6752;52.612;13.630;2024-02-26T09:34:22;99918.03;;;12.57;85.40
13367;BME280;6752;52.612;13.630;2024-02-26T09:39:24;99905.44;;;13.11;84.09
13367;BME280;6752;52.612;13.630;2024-02-26T09:44:27;99919.31;;;12.93;83.18
13367;BME280;6752;52.612;13.630;2024-02-26T09:49:29;99930.34;;;12.12;84.64
13367;BME280;6752;52.612;13.630;2024-02-26T09:54:32;99920.41;;;12.73;84.19
13367;BME280;6752;52.612;13.630;2024-02-26T09:59:37;99914.11;;;13.16;81.71
13367;BME280;6752;52.612;13.630;2024-02-26T10:04:36;99922.23;;;13.71;79.51
13367;BME280;6752;52.612;13.630;2024-02-26T10:09:39;99916.30;;;14.45;75.87
13367;BME280;6752;52.612;13.630;2024-02-26T10:14:41;99924.20;;;14.65;73.28
13367;BME280;6752;52.612;13.630;2024-02-26T10:19:43;99919.83;;;15.34;71.99
13367;BME280;6752;52.612;13.630;2024-02-26T10:24:46;99918.91;;;15.47;71.62
13367;BME280;6752;52.612;13.630;2024-02-26T10:29:48;99919.83;;;15.86;68.90
13367;BME280;6752;52.612;13.630;2024-02-26T10:34:55;99924.63;;;16.00;70.27
13367;BME280;6752;52.612;13.630;2024-02-26T10:39:53;99912.39;;;16.22;67.69
13367;BME280;6752;52.612;13.630;2024-02-26T10:44:55;99905.86;;;16.61;67.34
13367;BME280;6752;52.612;13.630;2024-02-26T10:49:57;99906.43;;;16.47;64.75
13367;BME280;6752;52.612;13.630;2024-02-26T10:55:03;99912.30;;;16.81;63.11
13367;BME280;6752;52.612;13.630;2024-02-26T11:00:05;99910.64;;;16.77;62.90
13367;BME280;6752;52.612;13.630;2024-02-26T11:05:07;99910.52;;;17.37;63.43
13367;BME280;6752;52.612;13.630;2024-02-26T11:10:10;99906.31;;;17.47;63.38
13367;BME280;6752;52.612;13.630;2024-02-26T11:15:12;99903.56;;;17.72;63.05
13367;BME280;6752;52.612;13.630;2024-02-26T11:20:14;99914.67;;;16.68;64.83
13367;BME280;6752;52.612;13.630;2024-02-26T11:25:17;99907.57;;;17.21;62.42
13367;BME280;6752;52.612;13.630;2024-02-26T11:30:19;99907.36;;;17.59;62.96
13367;BME280;6752;52.612;13.630;2024-02-26T11:35:21;99901.97;;;17.61;61.19
13367;BME280;6752;52.612;13.630;2024-02-26T11:40:24;99906.30;;;17.30;61.71
13367;BME280;6752;52.612;13.630;2024-02-26T11:50:47;99913.08;;;16.34;60.91
13367;BME280;6752;52.612;13.630;2024-02-26T11:56:11;99911.41;;;16.30;61.94
13367;BME280;6752;52.612;13.630;2024-02-26T12:00:51;99908.97;;;16.13;61.65
13367;BME280;6752;52.612;13.630;2024-02-26T12:05:53;99920.14;;;15.46;63.60
13367;BME280;6752;52.612;13.630;2024-02-26T12:10:56;99918.16;;;15.72;61.80
13367;BME280;6752;52.612;13.630;2024-02-26T12:15:58;99913.77;;;15.97;62.71
13367;BME280;6752;52.612;13.630;2024-02-26T12:21:01;99914.10;;;15.02;63.25
13367;BME280;6752;52.612;13.630;2024-02-26T12:26:03;99924.34;;;15.66;64.62
13367;BME280;6752;52.612;13.630;2024-02-26T12:31:05;99919.33;;;15.50;63.77
13367;BME280;6752;52.612;13.630;2024-02-26T12:36:08;99932.37;;;14.76;63.82
13367;BME280;6752;52.612;13.630;2024-02-26T12:41:10;99928.78;;;14.99;65.01
13367;BME280;6752;52.612;13.630;2024-02-26T12:46:12;99925.02;;;16.38;62.97
13367;BME280;6752;52.612;13.630;2024-02-26T12:51:15;99928.20;;;15.36;62.17
13367;BME280;6752;52.612;13.630;2024-02-26T12:56:17;99933.47;;;15.50;63.13
13367;BME280;6752;52.612;13.630;2024-02-26T13:01:22;99929.34;;;15.38;61.97
13367;BME280;6752;52.612;13.630;2024-02-26T13:06:22;99937.30;;;15.05;62.16
13367;BME280;6752;52.612;13.630;2024-02-26T13:11:24;99936.61;;;15.04;62.23
13367;BME280;6752;52.612;13.630;2024-02-26T13:16:26;99940.50;;;14.87;62.53
13367;BME280;6752;52.612;13.630;2024-02-26T13:21:29;99947.37;;;14.64;62.38
13367;BME280;6752;52.612;13.630;2024-02-26T13:26:31;99944.64;;;14.26;64.06
13367;BME280;6752;52.612;13.630;2024-02-26T13:31:39;99947.16;;;14.36;65.43
13367;BME280;6752;52.612;13.630;2024-02-26T13:36:42;99956.71;;;14.28;66.11
13367;BME280;6752;52.612;13.630;2024-02-26T13:41:44;99962.08;;;13.84;65.64
13367;BME280;6752;52.612;13.630;2024-02-26T13:46:47;99953.19;;;13.85;66.14
13367;BME280;6752;52.612;13.630;2024-02-26T13:51:49;99964.68;;;13.71;66.31
13367;BME280;6752;52.612;13.630;2024-02-26T13:56:51;99970.73;;;13.24;65.84
13367;BME280;6752;52.612;13.630;2024-02-26T14:01:53;99970.30;;;13.32;66.35
13367;BME280;6752;52.612;13.630;2024-02-26T14:06:56;99969.63;;;13.33;67.30
13367;BME280;6752;52.612;13.630;2024-02-26T14:11:59;99979.08;;;13.15;67.69
13367;BME280;6752;52.612;13.630;2024-02-26T14:17:01;99988.94;;;13.16;66.88
13367;BME280;6752;52.612;13.630;2024-02-26T14:22:03;100009.48;;;12.85;66.42
13367;BME280;6752;52.612;13.630;2024-02-26T14:27:06;100017.81;;;13.04;66.75
13367;BME280;6752;52.612;13.630;2024-02-26T14:32:08;100024.20;;;12.93;67.01
13367;BME280;6752;52.612;13.630;2024-02-26T14:37:10;100033.34;;;12.73;68.09
13367;BME280;6752;52.612;13.630;2024-02-26T14:42:12;100029.52;;;12.63;67.90
13367;BME280;6752;52.612;13.630;2024-02-26T14:47:15;100035.69;;;12.65;69.02
13367;BME280;6752;52.612;13.630;2024-02-26T14:52:17;100042.31;;;12.43;70.75
13367;BME280;6752;52.612;13.630;2024-02-26T14:57:19;100046.65;;;12.25;71.36
13367;BME280;6752;52.612;13.630;2024-02-26T15:02:22;100059.61;;;12.16;72.24
13367;BME280;6752;52.612;13.630;2024-02-26T15:07:24;100064.33;;;12.28;71.81
13367;BME280;6752;52.612;13.630;2024-02-26T15:12:26;100067.02;;;12.26;72.57
13367;BME280;6752;52.612;13.630;2024-02-26T15:17:29;100074.84;;;12.11;74.11
13367;BME280;6752;52.612;13.630;2024-02-26T15:22:31;100077.23;;;12.08;76.04
13367;BME280;6752;52.612;13.630;2024-02-26T15:27:34;100086.74;;;11.91;76.91
13367;BME280;6752;52.612;13.630;2024-02-26T15:32:37;100080.78;;;11.80;77.59
13367;BME280;6752;52.612;13.630;2024-02-26T15:37:39;100088.02;;;11.80;78.27
13367;BME280;6752;52.612;13.630;2024-02-26T15:42:42;100100.78;;;11.71;79.17
13367;BME280;6752;52.612;13.630;2024-02-26T15:47:44;100106.41;;;11.53;80.33
13367;BME280;6752;52.612;13.630;2024-02-26T15:52:46;100111.92;;;11.61;81.17
13367;BME280;6752;52.612;13.630;2024-02-26T15:57:49;100100.94;;;11.91;81.43
13367;BME280;6752;52.612;13.630;2024-02-26T16:02:51;100117.67;;;11.62;81.37
13367;BME280;6752;52.612;13.630;2024-02-26T16:07:54;100130.69;;;11.46;82.99
13367;BME280;6752;52.612;13.630;2024-02-26T16:13:00;100136.41;;;11.39;84.87
13367;BME280;6752;52.612;13.630;2024-02-26T16:18:01;100144.95;;;11.36;85.36
13367;BME280;6752;52.612;13.630;2024-02-26T16:23:03;100150.19;;;11.52;85.73
13367;BME280;6752;52.612;13.630;2024-02-26T16:28:06;100155.04;;;11.18;86.11
13367;BME280;6752;52.612;13.630;2024-02-26T16:33:08;100151.20;;;10.84;86.82
13367;BME280;6752;52.612;13.630;2024-02-26T16:38:10;100152.81;;;10.77;87.32
13367;BME280;6752;52.612;13.630;2024-02-26T16:43:13;100155.23;;;10.70;87.31
13367;BME280;6752;52.612;13.630;2024-02-26T16:48:15;100153.99;;;10.69;86.74
13367;BME280;6752;52.612;13.630;2024-02-26T16:53:17;100154.13;;;10.39;87.69
13367;BME280;6752;52.612;13.630;2024-02-26T16:58:20;100153.89;;;10.34;88.12
13367;BME280;6752;52.612;13.630;2024-02-26T17:03:22;100157.74;;;9.97;88.46
13367;BME280;6752;52.612;13.630;2024-02-26T17:08:25;100172.55;;;10.01;90.59
13367;BME280;6752;52.612;13.630;2024-02-26T17:13:27;100174.21;;;9.93;91.78
13367;BME280;6752;52.612;13.630;2024-02-26T17:18:32;100177.03;;;9.95;92.60
13367;BME280;6752;52.612;13.630;2024-02-26T17:23:34;100182.74;;;9.81;95.62
13367;BME280;6752;52.612;13.630;2024-02-26T17:28:37;100193.28;;;9.83;96.66
13367;BME280;6752;52.612;13.630;2024-02-26T17:33:41;100195.49;;;9.75;98.05
13367;BME280;6752;52.612;13.630;2024-02-26T17:38:43;100204.00;;;9.73;98.58
13367;BME280;6752;52.612;13.630;2024-02-26T17:43:46;100206.63;;;9.52;99.68
13367;BME280;6752;52.612;13.630;2024-02-26T17:48:48;100209.30;;;9.92;98.15
13367;BME280;6752;52.612;13.630;2024-02-26T17:53:50;100216.03;;;9.62;99.66
13367;BME280;6752;52.612;13.630;2024-02-26T17:58:56;100225.72;;;9.45;100.00
13367;BME280;6752;52.612;13.630;2024-02-26T18:03:57;100237.66;;;9.57;100.00
13367;BME280;6752;52.612;13.630;2024-02-26T18:09:07;100250.91;;;9.37;100.00
13367;BME280;6752;52.612;13.630;2024-02-26T18:14:18;100257.75;;;9.46;100.00
13367;BME280;6752;52.612;13.630;2024-02-26T18:19:23;100261.78;;;9.28;100.00
13367;BME280;6752;52.612;13.630;2024-02-26T18:24:26;100265.23;;;9.14;100.00
13367;BME280;6752;52.612;13.630;2024-02-26T18:29:28;100284.69;;;9.14;100.00
13367;BME280;6752;52.612;13.630;2024-02-26T18:34:30;100290.67;;;8.94;100.00
13367;BME280;6752;52.612;13.630;2024-02-26T18:39:33;100287.53;;;9.26;100.00
13367;BME280;6752;52.612;13.630;2024-02-26T18:44:35;100305.08;;;8.98;100.00
13367;BME280;6752;52.612;13.630;2024-02-26T18:49:40;100296.47;;;8.89;100.00
13367;BME280;6752;52.612;13.630;2024-02-26T18:54:43;100306.51;;;8.88;100.00
13367;BME280;6752;52.612;13.630;2024-02-26T18:59:45;100308.45;;;8.93;100.00
13367;BME280;6752;52.612;13.630;2024-02-26T19:04:48;100309.64;;;8.88;100.00
13367;BME280;6752;52.612;13.630;2024-02-26T19:09:50;100322.77;;;8.95;100.00
13367;BME280;6752;52.612;13.630;2024-02-26T19:14:52;100324.06;;;8.70;100.00
13367;BME280;6752;52.612;13.630;2024-02-26T19:19:55;100316.74;;;8.70;100.00
13367;BME280;6752;52.612;13.630;2024-02-26T19:24:57;100319.11;;;8.60;100.00
13367;BME280;6752;52.612;13.630;2024-02-26T19:29:59;100315.03;;;8.60;100.00
13367;BME280;6752;52.612;13.630;2024-02-26T19:35:02;100317.98;;;8.55;100.00
13367;BME280;6752;52.612;13.630;2024-02-26T19:40:05;100322.42;;;8.43;100.00
13367;BME280;6752;52.612;13.630;2024-02-26T19:45:10;100328.17;;;8.41;100.00
13367;BME280;6752;52.612;13.630;2024-02-26T19:50:15;100335.29;;;8.39;100.00
13367;BME280;6752;52.612;13.630;2024-02-26T19:55:17;100343.13;;;8.31;100.00
13367;BME280;6752;52.612;13.630;2024-02-26T20:00:20;100338.95;;;8.32;100.00
13367;BME280;6752;52.612;13.630;2024-02-26T20:05:22;100337.39;;;8.23;100.00
13367;BME280;6752;52.612;13.630;2024-02-26T20:10:24;100346.02;;;8.07;100.00
13367;BME280;6752;52.612;13.630;2024-02-26T20:15:27;100346.28;;;8.18;100.00
13367;BME280;6752;52.612;13.630;2024-02-26T20:20:30;100346.89;;;8.23;100.00
13367;BME280;6752;52.612;13.630;2024-02-26T20:25:33;100352.49;;;8.06;100.00
13367;BME280;6752;52.612;13.630;2024-02-26T20:30:35;100356.28;;;7.85;100.00
13367;BME280;6752;52.612;13.630;2024-02-26T20:35:38;100360.45;;;7.78;100.00
13367;BME280;6752;52.612;13.630;2024-02-26T20:40:40;100374.97;;;7.81;100.00
13367;BME280;6752;52.612;13.630;2024-02-26T20:45:45;100372.57;;;7.65;100.00
13367;BME280;6752;52.612;13.630;2024-02-26T20:50:48;100379.44;;;7.75;100.00
13367;BME280;6752;52.612;13.630;2024-02-26T20:55:51;100388.42;;;7.72;100.00
13367;BME280;6752;52.612;13.630;2024-02-26T21:00:52;100383.92;;;7.55;100.00
13367;BME280;6752;52.612;13.630;2024-02-26T21:05:55;100380.38;;;7.48;100.00
13367;BME280;6752;52.612;13.630;2024-02-26T21:10:57;100392.48;;;7.52;100.00
13367;BME280;6752;52.612;13.630;2024-02-26T21:15:59;100396.84;;;7.27;100.00
13367;BME280;6752;52.612;13.630;2024-02-26T21:21:02;100401.73;;;7.24;100.00
13367;BME280;6752;52.612;13.630;2024-02-26T21:26:05;100409.61;;;7.05;100.00
13367;BME280;6752;52.612;13.630;2024-02-26T21:31:07;100411.69;;;7.00;100.00
13367;BME280;6752;52.612;13.630;2024-02-26T21:36:09;100425.48;;;6.85;100.00
13367;BME280;6752;52.612;13.630;2024-02-26T21:41:11;100420.54;;;6.98;100.00
13367;BME280;6752;52.612;13.630;2024-02-26T21:46:14;100427.25;;;6.85;100.00
13367;BME280;6752;52.612;13.630;2024-02-26T21:51:16;100432.82;;;6.91;100.00
13367;BME280;6752;52.612;13.630;2024-02-26T21:56:18;100432.67;;;6.85;100.00
13367;BME280;6752;52.612;13.630;2024-02-26T22:01:21;100441.91;;;6.73;100.00
13367;BME280;6752;52.612;13.630;2024-02-26T22:06:23;100458.92;;;6.81;100.00
13367;BME280;6752;52.612;13.630;2024-02-26T22:11:25;100462.35;;;7.06;100.00
13367;BME280;6752;52.612;13.630;2024-02-26T22:16:28;100463.51;;;6.84;100.00
13367;BME280;6752;52.612;13.630;2024-02-26T22:21:34;100468.80;;;6.75;100.00
13367;BME280;6752;52.612;13.630;2024-02-26T22:26:35;100477.23;;;6.58;100.00
13367;BME280;6752;52.612;13.630;2024-02-26T22:31:38;100476.69;;;6.70;100.00
13367;BME280;6752;52.612;13.630;2024-02-26T22:36:40;100482.83;;;6.68;100.00
13367;BME280;6752;52.612;13.630;2024-02-26T22:41:42;100475.56;;;6.57;100.00
13367;BME280;6752;52.612;13.630;2024-02-26T22:46:45;100483.24;;;6.51;100.00
13367;BME280;6752;52.612;13.630;2024-02-26T22:51:47;100479.96;;;6.62;100.00
13367;BME280;6752;52.612;13.630;2024-02-26T22:56:50;100470.76;;;6.53;100.00
13367;BME280;6752;52.612;13.630;2024-02-26T23:01:52;100474.70;;;6.50;100.00
13367;BME280;6752;52.612;13.630;2024-02-26T23:06:54;100463.96;;;6.64;100.00
13367;BME280;6752;52.612;13.630;2024-02-26T23:11:57;100468.73;;;6.44;100.00
13367;BME280;6752;52.612;13.630;2024-02-26T23:16:59;100457.52;;;6.51;100.00
13367;BME280;6752;52.612;13.630;2024-02-26T23:22:03;100462.28;;;6.45;100.00
13367;BME280;6752;52.612;13.630;2024-02-26T23:27:05;100470.51;;;6.44;100.00
13367;BME280;6752;52.612;13.630;2024-02-26T23:32:08;100473.02;;;6.46;100.00
13367;BME280;6752;52.612;13.630;2024-02-26T23:37:10;100483.75;;;6.47;100.00
13367;BME280;6752;52.612;13.630;2024-02-26T23:42:12;100487.50;;;6.35;100.00
13367;BME280;6752;52.612;13.630;2024-02-26T23:47:15;100499.98;;;6.33;100.00
13367;BME280;6752;52.612;13.630;2024-02-26T23:52:17;100503.84;;;6.34;100.00
13367;BME280;6752;52.612;13.630;2024-02-26T23:57:19;100514.91;;;6.22;100.00
